Time,TemperatureF,DewpointF,PressureIn,WindDirection,WindDirectionDegrees,WindSpeedMPH,WindSpeedGustMPH,Humidity,HourlyPrecipIn,Conditions,Clouds,dailyrainin,SoftwareType,DateUTC
2013-05-08 00:01:00,53.6,50.4,29.30,WSW,248,0.0,0.0,89,0.00,RA,,0.00,WeatherDisplay:10.37,2013-05-08 04:01:00,
2013-05-08 00:06:00,53.6,50.7,29.30,WSW,248,0.0,0.0,90,0.00,RA,,0.00,WeatherDisplay:10.37,2013-05-08 04:06:00,
2013-05-08 00:11:00,53.5,50.6,29.30,WSW,248,0.0,0.0,90,0.00,CLR,,0.00,WeatherDisplay:10.37,2013-05-08 04:11:00,
2013-05-08 00:16:00,53.5,50.9,29.30,WSW,248,0.0,0.0,91,0.00,CLR,,0.00,WeatherDisplay:10.37,2013-05-08 04:16:00,
2013-05-08 00:21:00,53.5,50.9,29.30,WSW,248,0.0,0.0,91,0.00,CLR,,0.00,WeatherDisplay:10.37,2013-05-08 04:21:00,
2013-05-08 00:26:00,53.3,50.7,29.30,WSW,248,0.0,0.0,91,0.00,CLR,,0.00,WeatherDisplay:10.37,2013-05-08 04:26:00,
2013-05-08 00:31:00,53.3,50.7,29.30,WSW,248,0.0,0.0,91,0.00,CLR,,0.00,WeatherDisplay:10.37,2013-05-08 04:31:00,
2013-05-08 00:36:00,53.2,50.9,29.30,WSW,248,0.0,0.0,92,0.00,CLR,,0.00,WeatherDisplay:10.37,2013-05-08 04:36:00,
2013-05-08 00:41:00,53.1,50.5,29.29,WSW,248,0.0,0.0,91,0.00,CLR,,0.00,WeatherDisplay:10.37,2013-05-08 04:41:00,
2013-05-08 00:46:00,52.9,50.6,29.29,WSW,248,0.0,0.0,92,0.00,CLR,,0.00,WeatherDisplay:10.37,2013-05-08 04:46:00,
2013-05-08 00:51:00,53.1,50.8,29.29,WSW,248,0.0,0.0,92,0.00,CLR,,0.00,WeatherDisplay:10.37,2013-05-08 04:51:00,
2013-05-08 00:56:00,52.9,50.6,29.29,WSW,248,0.0,0.0,92,0.00,CLR,,0.00,WeatherDisplay:10.37,2013-05-08 04:56:00,
2013-05-08 01:01:00,52.8,50.5,29.29,WSW,248,0.0,0.0,92,0.00,CLR,,0.00,WeatherDisplay:10.37,2013-05-08 05:01:00,
2013-05-08 01:06:00,52.6,50.3,29.29,WSW,248,0.0,0.0,92,0.00,CLR,,0.00,WeatherDisplay:10.37,2013-05-08 05:06:00,
2013-05-08 01:11:00,52.6,50.3,29.29,WSW,248,0.0,0.0,92,0.00,CLR,,0.00,WeatherDisplay:10.37,2013-05-08 05:11:00,
2013-05-08 01:16:00,52.5,50.2,29.29,WSW,248,0.0,0.0,92,0.00,CLR,,0.00,WeatherDisplay:10.37,2013-05-08 05:16:00,
2013-05-08 01:21:00,52.5,50.5,29.29,WSW,248,0.0,0.0,93,0.00,CLR,,0.00,WeatherDisplay:10.37,2013-05-08 05:21:00,
2013-05-08 01:26:00,52.6,50.6,29.29,WSW,248,0.0,0.0,93,0.00,CLR,,0.00,WeatherDisplay:10.37,2013-05-08 05:26:00,
2013-05-08 01:31:00,52.6,50.9,29.29,WSW,248,0.0,0.0,94,0.00,CLR,,0.00,WeatherDisplay:10.37,2013-05-08 05:31:00,
2013-05-08 01:36:00,52.8,51.1,29.29,WSW,248,0.0,0.0,94,0.00,CLR,,0.00,WeatherDisplay:10.37,2013-05-08 05:36:00,
2013-05-08 01:41:00,52.9,51.2,29.29,WSW,248,0.0,0.0,94,0.00,CLR,,0.00,WeatherDisplay:10.37,2013-05-08 05:41:00,
2013-05-08 01:46:00,52.9,51.2,29.29,WSW,248,0.0,0.0,94,0.00,CLR,,0.00,WeatherDisplay:10.37,2013-05-08 05:46:00,
2013-05-08 01:51:00,52.9,51.2,29.29,WSW,248,0.0,0.0,94,0.00,CLR,,0.00,WeatherDisplay:10.37,2013-05-08 05:51:00,
2013-05-08 01:56:00,52.9,51.2,29.28,WSW,248,0.0,0.0,94,0.00,CLR,,0.00,WeatherDisplay:10.37,2013-05-08 05:56:00,
2013-05-08 02:01:00,53.1,51.4,29.28,WSW,248,0.0,0.0,94,0.00,CLR,,0.00,WeatherDisplay:10.37,2013-05-08 06:01:00,
2013-05-08 02:06:00,53.1,51.4,29.28,WSW,248,0.0,0.0,94,0.00,CLR,,0.00,WeatherDisplay:10.37,2013-05-08 06:06:00,
2013-05-08 02:11:00,53.1,51.4,29.28,WSW,248,0.0,0.0,94,0.00,CLR,,0.00,WeatherDisplay:10.37,2013-05-08 06:11:00,
2013-05-08 02:16:00,53.1,51.1,29.28,WSW,248,0.0,0.0,93,0.00,CLR,,0.00,WeatherDisplay:10.37,2013-05-08 06:16:00,
2013-05-08 02:21:00,53.2,50.9,29.28,WSW,248,0.0,0.0,92,0.00,CLR,,0.00,WeatherDisplay:10.37,2013-05-08 06:21:00,
2013-05-08 02:26:00,53.2,50.9,29.27,WSW,248,0.0,0.0,92,0.00,CLR,,0.00,WeatherDisplay:10.37,2013-05-08 06:26:00,
2013-05-08 02:31:00,53.5,50.9,29.27,WSW,248,3.5,3.5,91,0.00,CLR,,0.00,WeatherDisplay:10.37,2013-05-08 06:31:00,
2013-05-08 02:36:00,53.6,50.4,29.27,WSW,248,2.3,2.3,89,0.00,CLR,,0.00,WeatherDisplay:10.37,2013-05-08 06:36:00,
2013-05-08 02:41:00,53.6,50.4,29.27,WSW,248,2.3,2.3,89,0.00,CLR,,0.00,WeatherDisplay:10.37,2013-05-08 06:41:00,
2013-05-08 02:46:00,53.8,50.3,29.27,WSW,248,0.0,0.0,88,0.00,CLR,,0.00,WeatherDisplay:10.37,2013-05-08 06:46:00,
2013-05-08 02:51:00,53.9,50.1,29.27,WSW,248,0.0,0.0,87,0.00,CLR,,0.00,WeatherDisplay:10.37,2013-05-08 06:51:00,
2013-05-08 02:56:00,53.9,50.4,29.28,WSW,248,0.0,0.0,88,0.00,CLR,,0.00,WeatherDisplay:10.37,2013-05-08 06:56:00,
2013-05-08 03:01:00,53.8,50.3,29.28,WSW,248,0.0,0.0,88,0.00,CLR,,0.00,WeatherDisplay:10.37,2013-05-08 07:01:00,
2013-05-08 03:06:00,53.6,50.1,29.28,WSW,248,0.0,0.0,88,0.00,CLR,,0.00,WeatherDisplay:10.37,2013-05-08 07:06:00,
2013-05-08 03:11:00,53.6,50.1,29.27,WSW,248,0.0,0.0,88,0.00,CLR,,0.00,WeatherDisplay:10.37,2013-05-08 07:11:00,
2013-05-08 03:16:00,53.6,50.4,29.27,WSW,248,0.0,0.0,89,0.00,CLR,,0.00,WeatherDisplay:10.37,2013-05-08 07:16:00,
2013-05-08 03:21:00,53.6,50.7,29.27,WSW,248,0.0,0.0,90,0.00,CLR,,0.00,WeatherDisplay:10.37,2013-05-08 07:21:00,
2013-05-08 03:26:00,53.6,50.7,29.27,WSW,248,0.0,0.0,90,0.00,CLR,,0.00,WeatherDisplay:10.37,2013-05-08 07:26:00,
2013-05-08 03:31:00,53.5,50.6,29.27,WSW,248,0.0,0.0,90,0.00,CLR,,0.00,WeatherDisplay:10.37,2013-05-08 07:31:00,
2013-05-08 03:36:00,53.5,50.6,29.27,WSW,248,0.0,0.0,90,0.00,CLR,,0.00,WeatherDisplay:10.37,2013-05-08 07:36:00,
2013-05-08 03:41:00,53.5,50.6,29.27,WSW,248,0.0,0.0,90,0.00,CLR,,0.00,WeatherDisplay:10.37,2013-05-08 07:41:00,
2013-05-08 03:46:00,53.1,50.2,29.27,WSW,248,0.0,0.0,90,0.00,CLR,,0.00,WeatherDisplay:10.37,2013-05-08 07:46:00,
2013-05-08 03:51:00,53.1,50.2,29.27,WSW,248,0.0,0.0,90,0.00,CLR,,0.00,WeatherDisplay:10.37,2013-05-08 07:51:00,
2013-05-08 03:56:00,52.9,50.6,29.28,WSW,248,0.0,0.0,92,0.00,CLR,,0.00,WeatherDisplay:10.37,2013-05-08 07:56:00,
2013-05-08 04:01:00,52.8,50.5,29.28,WSW,248,0.0,0.0,92,0.00,CLR,,0.00,WeatherDisplay:10.37,2013-05-08 08:01:00,
2013-05-08 04:06:00,52.8,50.5,29.28,WSW,248,0.0,0.0,92,0.00,CLR,,0.00,WeatherDisplay:10.37,2013-05-08 08:06:00,
2013-05-08 04:11:00,52.6,50.3,29.28,WSW,248,0.0,0.0,92,0.00,CLR,,0.00,WeatherDisplay:10.37,2013-05-08 08:11:00,
2013-05-08 04:16:00,52.6,50.3,29.28,WSW,248,0.0,0.0,92,0.00,CLR,,0.00,WeatherDisplay:10.37,2013-05-08 08:16:00,
2013-05-08 04:21:00,52.8,50.5,29.28,WSW,248,0.0,0.0,92,0.00,CLR,,0.00,WeatherDisplay:10.37,2013-05-08 08:21:00,
2013-05-08 04:26:00,52.8,50.8,29.28,WSW,248,0.0,0.0,93,0.00,CLR,,0.00,WeatherDisplay:10.37,2013-05-08 08:26:00,
2013-05-08 04:31:00,52.8,50.8,29.28,WSW,248,0.0,0.0,93,0.00,CLR,,0.00,WeatherDisplay:10.37,2013-05-08 08:31:00,
2013-05-08 04:36:00,52.8,50.8,29.28,WSW,248,0.0,0.0,93,0.00,CLR,,0.00,WeatherDisplay:10.37,2013-05-08 08:36:00,
2013-05-08 04:41:00,52.9,50.9,29.28,WSW,248,0.0,0.0,93,0.00,CLR,,0.00,WeatherDisplay:10.37,2013-05-08 08:41:00,
2013-05-08 04:46:00,53.1,51.1,29.28,WSW,248,0.0,0.0,93,0.00,CLR,,0.00,WeatherDisplay:10.37,2013-05-08 08:46:00,
2013-05-08 04:51:00,53.2,51.2,29.28,WSW,248,0.0,0.0,93,0.00,CLR,,0.00,WeatherDisplay:10.37,2013-05-08 08:51:00,
2013-05-08 04:56:00,53.3,51.3,29.28,WSW,248,0.0,0.0,93,0.00,CLR,,0.00,WeatherDisplay:10.37,2013-05-08 08:56:00,
2013-05-08 05:01:00,53.5,51.5,29.28,WSW,248,0.0,0.0,93,0.00,CLR,,0.00,WeatherDisplay:10.37,2013-05-08 09:01:00,
2013-05-08 05:06:00,53.5,51.2,29.28,WSW,248,0.0,0.0,92,0.00,CLR,,0.00,WeatherDisplay:10.37,2013-05-08 09:06:00,
2013-05-08 05:12:00,53.5,51.2,29.28,WSW,248,0.0,0.0,92,0.00,CLR,,0.00,WeatherDisplay:10.37,2013-05-08 09:12:00,
2013-05-08 05:17:00,53.5,51.2,29.28,WSW,248,0.0,0.0,92,0.00,CLR,,0.00,WeatherDisplay:10.37,2013-05-08 09:17:00,
2013-05-08 05:22:00,53.6,51.3,29.28,WSW,248,0.0,0.0,92,0.00,CLR,,0.00,WeatherDisplay:10.37,2013-05-08 09:22:00,
2013-05-08 05:27:00,53.6,51.3,29.29,WSW,248,3.0,3.0,92,0.00,CLR,,0.00,WeatherDisplay:10.37,2013-05-08 09:27:00,
2013-05-08 05:32:00,53.6,51.3,29.29,WSW,248,0.0,0.0,92,0.00,CLR,,0.00,WeatherDisplay:10.37,2013-05-08 09:32:00,
2013-05-08 05:37:00,53.8,51.5,29.29,WSW,248,0.0,0.0,92,0.00,CLR,,0.00,WeatherDisplay:10.37,2013-05-08 09:37:00,
2013-05-08 05:42:00,53.8,51.8,29.29,WSW,248,3.5,3.5,93,0.00,CLR,,0.00,WeatherDisplay:10.37,2013-05-08 09:42:00,
2013-05-08 05:47:00,53.8,51.8,29.29,WSW,248,0.0,0.5,93,0.01,RA,,0.01,WeatherDisplay:10.37,2013-05-08 09:47:00,
2013-05-08 05:52:00,53.6,51.6,29.29,WSW,248,0.0,0.0,93,0.01,RA,,0.01,WeatherDisplay:10.37,2013-05-08 09:52:00,
2013-05-08 05:57:00,53.6,51.6,29.29,WSW,248,0.0,0.0,93,0.01,,,0.01,WeatherDisplay:10.37,2013-05-08 09:57:00,
2013-05-08 06:02:00,53.6,51.9,29.29,WSW,248,0.0,0.0,94,0.01,CLR,,0.01,WeatherDisplay:10.37,2013-05-08 10:02:00,
2013-05-08 06:07:00,53.6,51.9,29.29,WSW,248,0.0,0.0,94,0.01,CLR,,0.01,WeatherDisplay:10.37,2013-05-08 10:07:00,
2013-05-08 06:12:00,53.6,51.9,29.30,WSW,248,0.0,0.0,94,0.01,CLR,,0.01,WeatherDisplay:10.37,2013-05-08 10:12:00,
2013-05-08 06:17:00,53.6,51.9,29.30,WSW,248,0.0,0.0,94,0.01,CLR,,0.01,WeatherDisplay:10.37,2013-05-08 10:17:00,
2013-05-08 06:22:00,53.6,51.9,29.30,WSW,248,0.0,0.0,94,0.01,CLR,,0.01,WeatherDisplay:10.37,2013-05-08 10:22:00,
2013-05-08 06:27:00,53.8,52.1,29.30,WSW,248,0.0,0.0,94,0.01,CLR,,0.01,WeatherDisplay:10.37,2013-05-08 10:27:00,
2013-05-08 06:32:00,53.8,52.4,29.30,WSW,248,0.0,0.0,95,0.01,CLR,,0.01,WeatherDisplay:10.37,2013-05-08 10:32:00,
2013-05-08 06:37:00,53.8,52.4,29.30,West,260,0.0,0.0,95,0.01,CLR,,0.01,WeatherDisplay:10.37,2013-05-08 10:37:00,
2013-05-08 06:42:00,53.8,52.4,29.31,West,260,0.0,0.0,95,0.01,CLR,,0.01,WeatherDisplay:10.37,2013-05-08 10:42:00,
2013-05-08 06:47:00,53.8,52.4,29.31,West,260,0.0,0.0,95,0.00,CLR,,0.01,WeatherDisplay:10.37,2013-05-08 10:47:00,
2013-05-08 06:52:00,53.9,52.5,29.31,West,260,0.0,0.0,95,0.00,CLR,,0.01,WeatherDisplay:10.37,2013-05-08 10:52:00,
2013-05-08 06:57:00,53.9,52.5,29.31,WSW,257,2.3,0.0,95,0.00,CLR,,0.01,WeatherDisplay:10.37,2013-05-08 10:57:00,
2013-05-08 07:02:00,53.9,52.5,29.31,WSW,239,0.0,0.0,95,0.00,CLR,,0.01,WeatherDisplay:10.37,2013-05-08 11:02:00,
2013-05-08 07:07:00,54.1,53.0,29.31,WSW,239,0.0,0.0,96,0.00,CLR,,0.01,WeatherDisplay:10.37,2013-05-08 11:07:00,
2013-05-08 07:12:00,54.1,52.7,29.31,WSW,239,0.0,0.0,95,0.00,CLR,,0.01,WeatherDisplay:10.37,2013-05-08 11:12:00,
2013-05-08 07:17:00,54.1,53.0,29.31,WSW,239,1.1,1.8,96,0.00,CLR,,0.01,WeatherDisplay:10.37,2013-05-08 11:17:00,
2013-05-08 07:22:00,54.1,53.0,29.31,WSW,239,0.0,0.0,96,0.00,CLR,,0.01,WeatherDisplay:10.37,2013-05-08 11:22:00,
2013-05-08 07:27:00,54.1,53.0,29.32,WSW,239,0.0,0.0,96,0.00,CLR,,0.01,WeatherDisplay:10.37,2013-05-08 11:27:00,
2013-05-08 07:32:00,54.2,53.1,29.32,WSW,239,2.3,0.0,96,0.00,CLR,,0.01,WeatherDisplay:10.37,2013-05-08 11:32:00,
2013-05-08 07:37:00,54.4,53.3,29.32,WSW,239,2.3,2.3,96,0.00,CLR,,0.01,WeatherDisplay:10.37,2013-05-08 11:37:00,
2013-05-08 07:42:00,54.4,53.3,29.32,WSW,239,0.0,0.0,96,0.00,CLR,,0.01,WeatherDisplay:10.37,2013-05-08 11:42:00,
2013-05-08 07:47:00,54.4,53.0,29.32,WSW,239,0.0,0.0,95,0.00,CLR,,0.01,WeatherDisplay:10.37,2013-05-08 11:47:00,
2013-05-08 07:52:00,54.5,53.4,29.32,WSW,239,0.0,0.0,96,0.00,CLR,,0.01,WeatherDisplay:10.37,2013-05-08 11:52:00,
2013-05-08 07:57:00,54.7,53.6,29.32,WSW,239,0.0,0.0,96,0.00,CLR,,0.01,WeatherDisplay:10.37,2013-05-08 11:57:00,
2013-05-08 08:02:00,54.7,53.6,29.32,WSW,239,0.0,0.0,96,0.00,CLR,,0.01,WeatherDisplay:10.37,2013-05-08 12:02:00,
2013-05-08 08:07:00,55.0,53.9,29.32,WSW,239,0.0,0.0,96,0.00,CLR,,0.01,WeatherDisplay:10.37,2013-05-08 12:07:00,
2013-05-08 08:12:00,55.3,54.2,29.33,WSW,239,0.0,0.0,96,0.00,CLR,,0.01,WeatherDisplay:10.37,2013-05-08 12:12:00,
2013-05-08 08:17:00,55.6,54.5,29.33,WSW,239,0.0,0.0,96,0.00,CLR,,0.01,WeatherDisplay:10.37,2013-05-08 12:17:00,
2013-05-08 08:22:00,55.7,54.6,29.33,WSW,239,0.0,0.0,96,0.00,CLR,,0.01,WeatherDisplay:10.37,2013-05-08 12:22:00,
2013-05-08 08:27:00,55.9,54.5,29.33,WSW,239,0.0,0.0,95,0.00,CLR,,0.01,WeatherDisplay:10.37,2013-05-08 12:27:00,
2013-05-08 08:32:00,56.0,54.6,29.33,WSW,239,0.0,0.0,95,0.00,CLR,,0.01,WeatherDisplay:10.37,2013-05-08 12:32:00,
2013-05-08 08:37:00,56.2,54.8,29.33,SW,229,0.0,0.0,95,0.00,CLR,,0.01,WeatherDisplay:10.37,2013-05-08 12:37:00,
2013-05-08 08:42:00,56.5,55.1,29.33,SW,229,0.0,0.0,95,0.00,CLR,,0.01,WeatherDisplay:10.37,2013-05-08 12:42:00,
2013-05-08 08:47:00,56.7,55.0,29.33,SW,229,0.0,0.0,94,0.00,CLR,,0.01,WeatherDisplay:10.37,2013-05-08 12:47:00,
2013-05-08 08:52:00,56.9,55.2,29.33,SW,229,0.0,0.0,94,0.01,RA,,0.02,WeatherDisplay:10.37,2013-05-08 12:52:00,
2013-05-08 08:57:00,57.0,55.0,29.33,SW,230,0.0,0.0,93,0.01,RA,,0.02,WeatherDisplay:10.37,2013-05-08 12:57:00,
2013-05-08 09:02:00,57.0,54.7,29.33,SW,230,2.3,2.3,92,0.01,,,0.02,WeatherDisplay:10.37,2013-05-08 13:02:00,
2013-05-08 09:07:00,57.0,54.4,29.33,SW,230,0.0,0.0,91,0.01,CLR,,0.02,WeatherDisplay:10.37,2013-05-08 13:07:00,
2013-05-08 09:12:00,57.0,54.1,29.34,SW,230,0.0,0.0,90,0.01,CLR,,0.02,WeatherDisplay:10.37,2013-05-08 13:12:00,
2013-05-08 09:17:00,57.2,54.0,29.34,SW,230,2.3,2.3,89,0.01,CLR,,0.02,WeatherDisplay:10.37,2013-05-08 13:17:00,
2013-05-08 09:22:00,57.3,54.1,29.34,SW,230,0.0,0.0,89,0.01,CLR,,0.02,WeatherDisplay:10.37,2013-05-08 13:22:00,
2013-05-08 09:27:00,57.5,54.3,29.34,SW,230,0.0,0.0,89,0.01,CLR,,0.02,WeatherDisplay:10.37,2013-05-08 13:27:00,
2013-05-08 09:32:00,57.8,54.6,29.34,SW,230,3.5,3.5,89,0.01,CLR,,0.02,WeatherDisplay:10.37,2013-05-08 13:32:00,
2013-05-08 09:37:00,57.8,54.3,29.34,SW,230,0.0,0.0,88,0.01,CLR,,0.02,WeatherDisplay:10.37,2013-05-08 13:37:00,
2013-05-08 09:42:00,58.0,54.5,29.35,WNW,285,0.0,0.0,88,0.01,CLR,,0.02,WeatherDisplay:10.37,2013-05-08 13:42:00,
2013-05-08 09:47:00,58.1,54.9,29.35,WNW,285,0.0,0.0,89,0.01,CLR,,0.02,WeatherDisplay:10.37,2013-05-08 13:47:00,
2013-05-08 09:52:00,58.3,54.8,29.35,WNW,285,3.5,3.5,88,0.00,CLR,,0.02,WeatherDisplay:10.37,2013-05-08 13:52:00,
2013-05-08 09:57:00,58.3,54.8,29.35,WNW,285,0.0,0.0,88,0.00,CLR,,0.02,WeatherDisplay:10.37,2013-05-08 13:57:00,
2013-05-08 10:02:00,58.6,55.1,29.35,WNW,284,0.0,0.0,88,0.00,CLR,,0.02,WeatherDisplay:10.37,2013-05-08 14:02:00,
2013-05-08 10:07:00,58.7,54.8,29.35,WNW,284,0.0,0.0,87,0.00,CLR,,0.02,WeatherDisplay:10.37,2013-05-08 14:07:00,
2013-05-08 10:12:00,59.0,55.4,29.35,WNW,284,2.3,0.0,88,0.00,CLR,,0.02,WeatherDisplay:10.37,2013-05-08 14:12:00,
2013-05-08 10:17:00,59.5,55.6,29.35,WNW,284,0.0,0.0,87,0.00,CLR,,0.02,WeatherDisplay:10.37,2013-05-08 14:17:00,
2013-05-08 10:22:00,59.6,55.1,29.35,SE,144,2.3,2.3,85,0.00,CLR,,0.02,WeatherDisplay:10.37,2013-05-08 14:22:00,
2013-05-08 10:27:00,59.8,54.3,29.35,South,186,0.0,0.0,82,0.00,CLR,,0.02,WeatherDisplay:10.37,2013-05-08 14:27:00,
2013-05-08 10:32:00,60.1,54.2,29.35,SW,234,1.0,1.0,81,0.00,CLR,,0.02,WeatherDisplay:10.37,2013-05-08 14:32:00,
2013-05-08 10:37:00,60.2,54.0,29.35,SW,234,0.0,0.0,80,0.00,CLR,,0.02,WeatherDisplay:10.37,2013-05-08 14:37:00,
2013-05-08 10:42:00,60.5,54.0,29.35,SW,234,0.0,0.0,79,0.00,CLR,,0.02,WeatherDisplay:10.37,2013-05-08 14:42:00,
2013-05-08 10:47:00,60.9,54.3,29.35,SW,215,0.0,0.0,79,0.00,CLR,,0.02,WeatherDisplay:10.37,2013-05-08 14:47:00,
2013-05-08 10:52:00,60.7,53.4,29.35,SW,217,3.5,3.5,77,0.00,CLR,,0.02,WeatherDisplay:10.37,2013-05-08 14:52:00,
2013-05-08 10:57:00,60.5,52.9,29.36,SSE,167,3.5,3.5,76,0.00,CLR,,0.02,WeatherDisplay:10.37,2013-05-08 14:57:00,
2013-05-08 11:02:00,60.4,53.5,29.36,SSE,167,0.0,0.0,78,0.00,CLR,,0.02,WeatherDisplay:10.37,2013-05-08 15:02:00,
2013-05-08 11:07:00,60.4,53.5,29.36,SW,223,3.5,3.5,78,0.00,CLR,,0.02,WeatherDisplay:10.37,2013-05-08 15:07:00,
2013-05-08 11:12:00,60.4,54.2,29.36,SW,223,0.0,0.0,80,0.00,CLR,,0.02,WeatherDisplay:10.37,2013-05-08 15:12:00,
2013-05-08 11:17:00,60.4,53.5,29.36,SW,223,3.5,3.5,78,0.00,CLR,,0.02,WeatherDisplay:10.37,2013-05-08 15:17:00,
2013-05-08 11:22:00,60.2,53.0,29.36,SW,219,0.0,0.0,77,0.00,CLR,,0.02,WeatherDisplay:10.37,2013-05-08 15:22:00,
2013-05-08 11:27:00,60.7,54.1,29.36,SW,219,0.0,0.0,79,0.00,CLR,,0.02,WeatherDisplay:10.37,2013-05-08 15:27:00,
2013-05-08 11:32:00,61.2,54.3,29.36,SSE,167,1.1,1.1,78,0.00,CLR,,0.02,WeatherDisplay:10.37,2013-05-08 15:32:00,
2013-05-08 11:37:00,61.5,53.9,29.36,SSE,162,1.1,0.0,76,0.00,CLR,,0.02,WeatherDisplay:10.37,2013-05-08 15:37:00,
2013-05-08 11:42:00,61.8,54.2,29.36,SSE,162,0.0,0.0,76,0.00,CLR,,0.02,WeatherDisplay:10.37,2013-05-08 15:42:00,
2013-05-08 11:48:00,62.1,54.1,29.36,SW,219,3.5,0.0,75,0.00,CLR,,0.02,WeatherDisplay:10.37,2013-05-08 15:48:00,
2013-05-08 11:53:00,62.6,53.8,29.36,SW,219,0.0,0.0,73,0.00,CLR,,0.02,WeatherDisplay:10.37,2013-05-08 15:53:00,
2013-05-08 11:58:00,62.7,53.9,29.35,SSE,167,0.0,0.0,73,0.00,CLR,,0.02,WeatherDisplay:10.37,2013-05-08 15:58:00,
2013-05-08 12:03:00,62.9,53.7,29.35,SSE,167,0.0,0.0,72,0.00,CLR,,0.02,WeatherDisplay:10.37,2013-05-08 16:03:00,
2013-05-08 12:08:00,62.9,53.7,29.35,SSE,167,0.0,0.0,72,0.00,CLR,,0.02,WeatherDisplay:10.37,2013-05-08 16:08:00,
2013-05-08 12:13:00,63.1,53.9,29.35,SW,216,3.5,3.5,72,0.00,CLR,,0.02,WeatherDisplay:10.37,2013-05-08 16:13:00,
2013-05-08 12:18:00,62.9,54.1,29.35,SW,219,0.0,0.1,73,0.00,CLR,,0.02,WeatherDisplay:10.37,2013-05-08 16:18:00,
2013-05-08 12:23:00,62.4,53.6,29.35,SW,233,2.3,2.3,73,0.00,CLR,,0.02,WeatherDisplay:10.37,2013-05-08 16:23:00,
2013-05-08 12:28:00,62.4,54.4,29.35,SSW,205,0.0,0.0,75,0.00,CLR,,0.02,WeatherDisplay:10.37,2013-05-08 16:28:00,
2013-05-08 12:33:00,62.6,54.2,29.35,SSW,205,0.0,0.0,74,0.00,CLR,,0.02,WeatherDisplay:10.37,2013-05-08 16:33:00,
2013-05-08 12:38:00,63.2,55.5,29.35,SSW,205,0.0,0.0,76,0.00,CLR,,0.02,WeatherDisplay:10.37,2013-05-08 16:38:00,
2013-05-08 12:43:00,64.5,56.8,29.34,SSW,208,0.0,0.1,76,0.00,CLR,,0.02,WeatherDisplay:10.37,2013-05-08 16:43:00,
2013-05-08 12:48:00,64.8,55.2,29.34,ESE,114,0.0,0.0,71,0.00,CLR,,0.02,WeatherDisplay:10.37,2013-05-08 16:48:00,
2013-05-08 12:53:00,65.6,56.3,29.34,ESE,117,0.0,0.1,72,0.00,CLR,,0.02,WeatherDisplay:10.37,2013-05-08 16:53:00,
2013-05-08 12:58:00,66.6,56.5,29.34,WSW,257,4.6,4.6,70,0.00,CLR,,0.02,WeatherDisplay:10.37,2013-05-08 16:58:00,
2013-05-08 13:03:00,66.8,55.5,29.34,West,270,7.0,7.0,67,0.00,CLR,,0.02,WeatherDisplay:10.37,2013-05-08 17:03:00,
2013-05-08 13:08:00,66.3,55.8,29.34,West,261,3.5,3.5,69,0.00,CLR,,0.02,WeatherDisplay:10.37,2013-05-08 17:08:00,
2013-05-08 13:13:00,66.4,55.9,29.33,WSW,254,2.3,3.4,69,0.00,CLR,,0.02,WeatherDisplay:10.37,2013-05-08 17:13:00,
2013-05-08 13:18:00,66.4,55.1,29.33,WNW,301,3.5,3.5,67,0.00,CLR,,0.02,WeatherDisplay:10.37,2013-05-08 17:18:00,
2013-05-08 13:23:00,66.8,55.5,29.33,SSW,199,1.1,1.1,67,0.00,CLR,,0.02,WeatherDisplay:10.37,2013-05-08 17:23:00,
2013-05-08 13:28:00,66.8,55.1,29.33,SW,217,6.9,6.9,66,0.00,CLR,,0.02,WeatherDisplay:10.37,2013-05-08 17:28:00,
2013-05-08 13:33:00,66.3,55.4,29.33,SW,234,3.5,3.5,68,0.00,CLR,,0.02,WeatherDisplay:10.37,2013-05-08 17:33:00,
2013-05-08 13:38:00,66.8,55.5,29.33,SW,229,8.1,8.1,67,0.00,CLR,,0.02,WeatherDisplay:10.37,2013-05-08 17:38:00,
2013-05-08 13:43:00,67.8,56.4,29.32,West,263,11.5,11.5,67,0.00,CLR,,0.02,WeatherDisplay:10.37,2013-05-08 17:43:00,
2013-05-08 13:48:00,68.4,56.6,29.32,WSW,251,3.5,3.9,66,0.00,CLR,,0.02,WeatherDisplay:10.37,2013-05-08 17:48:00,
2013-05-08 13:53:00,68.3,55.6,29.32,WSW,243,3.5,3.5,64,0.00,CLR,,0.02,WeatherDisplay:10.37,2013-05-08 17:53:00,
2013-05-08 13:58:00,68.6,55.9,29.31,SW,224,2.3,0.0,64,0.00,CLR,,0.02,WeatherDisplay:10.37,2013-05-08 17:58:00,
2013-05-08 14:03:00,68.8,56.1,29.31,SSW,213,4.6,4.6,64,0.00,CLR,,0.02,WeatherDisplay:10.37,2013-05-08 18:03:00,
2013-05-08 14:08:00,68.3,55.6,29.31,SW,216,8.1,8.1,64,0.00,CLR,,0.02,WeatherDisplay:10.37,2013-05-08 18:08:00,
2013-05-08 14:13:00,67.6,55.0,29.31,South,188,4.6,4.6,64,0.00,CLR,,0.02,WeatherDisplay:10.37,2013-05-08 18:13:00,
2013-05-08 14:18:00,67.1,54.9,29.31,WSW,244,4.6,4.6,65,0.00,CLR,,0.02,WeatherDisplay:10.37,2013-05-08 18:18:00,
2013-05-08 14:23:00,67.9,56.9,29.31,NW,315,4.6,4.6,68,0.00,CLR,,0.02,WeatherDisplay:10.37,2013-05-08 18:23:00,
2013-05-08 14:28:00,69.3,55.3,29.30,WSW,258,11.0,11.0,61,0.00,CLR,,0.02,WeatherDisplay:10.37,2013-05-08 18:28:00,
2013-05-08 14:33:00,69.3,53.4,29.30,SW,222,10.4,10.4,57,0.00,CLR,,0.02,WeatherDisplay:10.37,2013-05-08 18:33:00,
2013-05-08 14:38:00,68.9,53.0,29.30,WSW,246,5.8,5.8,57,0.00,CLR,,0.02,WeatherDisplay:10.37,2013-05-08 18:38:00,
2013-05-08 14:43:00,69.1,53.7,29.30,WSW,243,12.7,12.7,58,0.00,CLR,,0.02,WeatherDisplay:10.37,2013-05-08 18:43:00,
2013-05-08 14:48:00,68.9,53.5,29.30,WSW,246,6.0,6.6,58,0.00,CLR,,0.02,WeatherDisplay:10.37,2013-05-08 18:48:00,
2013-05-08 14:53:00,68.4,53.0,29.30,SW,220,6.9,6.9,58,0.00,CLR,,0.02,WeatherDisplay:10.37,2013-05-08 18:53:00,
2013-05-08 14:58:00,68.4,54.0,29.30,WSW,250,5.8,5.8,60,0.00,CLR,,0.02,WeatherDisplay:10.37,2013-05-08 18:58:00,
2013-05-08 15:03:00,68.3,52.9,29.30,WNW,298,6.9,6.9,58,0.00,CLR,,0.02,WeatherDisplay:10.37,2013-05-08 19:03:00,
2013-05-08 15:08:00,68.1,53.2,29.30,WSW,248,5.8,5.8,59,0.00,CLR,,0.02,WeatherDisplay:10.37,2013-05-08 19:08:00,
2013-05-08 15:13:00,68.4,54.4,29.30,WSW,247,4.6,4.6,61,0.00,CLR,,0.02,WeatherDisplay:10.37,2013-05-08 19:13:00,
2013-05-08 15:18:00,68.6,54.2,29.30,WSW,247,2.3,2.3,60,0.00,CLR,,0.02,WeatherDisplay:10.37,2013-05-08 19:18:00,
2013-05-08 15:23:00,68.9,54.0,29.30,SW,226,6.9,6.9,59,0.00,CLR,,0.02,WeatherDisplay:10.37,2013-05-08 19:23:00,
2013-05-08 15:28:00,69.1,53.7,29.29,WSW,257,6.9,6.9,58,0.00,CLR,,0.02,WeatherDisplay:10.37,2013-05-08 19:28:00,
2013-05-08 15:33:00,69.6,54.6,29.29,WSW,254,6.9,6.9,59,0.00,CLR,,0.02,WeatherDisplay:10.37,2013-05-08 19:33:00,
2013-05-08 15:38:00,69.4,53.5,29.29,WSW,254,11.5,11.5,57,0.00,CLR,,0.02,WeatherDisplay:10.37,2013-05-08 19:38:00,
2013-05-08 15:43:00,68.9,53.5,29.29,West,261,4.6,4.6,58,0.00,CLR,,0.02,WeatherDisplay:10.37,2013-05-08 19:43:00,
2013-05-08 15:48:00,68.6,54.6,29.29,SW,226,0.0,0.0,61,0.00,CLR,,0.02,WeatherDisplay:10.37,2013-05-08 19:48:00,
2013-05-08 15:53:00,68.8,55.2,29.29,SW,234,6.9,6.9,62,0.00,CLR,,0.02,WeatherDisplay:10.37,2013-05-08 19:53:00,
2013-05-08 15:58:00,68.8,54.3,29.29,WSW,254,5.8,5.8,60,0.00,CLR,,0.02,WeatherDisplay:10.37,2013-05-08 19:58:00,
2013-05-08 16:03:00,68.6,54.2,29.29,WSW,256,3.5,3.5,60,0.00,CLR,,0.02,WeatherDisplay:10.37,2013-05-08 20:03:00,
2013-05-08 16:08:00,68.4,54.0,29.29,SW,223,2.3,2.3,60,0.00,CLR,,0.02,WeatherDisplay:10.37,2013-05-08 20:08:00,
2013-05-08 16:13:00,68.3,54.3,29.29,West,271,5.8,5.8,61,0.00,CLR,,0.02,WeatherDisplay:10.37,2013-05-08 20:13:00,
2013-05-08 16:18:00,68.1,54.6,29.29,SSW,205,4.6,4.6,62,0.00,CLR,,0.02,WeatherDisplay:10.37,2013-05-08 20:18:00,
2013-05-08 16:23:00,68.1,54.6,29.29,WSW,248,2.3,2.3,62,0.00,CLR,,0.02,WeatherDisplay:10.37,2013-05-08 20:23:00,
2013-05-08 16:28:00,68.1,54.6,29.29,WSW,243,3.5,3.5,62,0.00,CLR,,0.02,WeatherDisplay:10.37,2013-05-08 20:28:00,
2013-05-08 16:33:00,68.1,55.9,29.29,West,265,6.9,6.9,65,0.00,CLR,,0.02,WeatherDisplay:10.37,2013-05-08 20:33:00,
2013-05-08 16:38:00,68.1,55.5,29.29,NW,304,3.5,3.5,64,0.00,CLR,,0.02,WeatherDisplay:10.37,2013-05-08 20:38:00,
2013-05-08 16:43:00,67.8,55.2,29.29,SW,216,3.5,3.5,64,0.00,CLR,,0.02,WeatherDisplay:10.37,2013-05-08 20:43:00,
2013-05-08 16:48:00,67.8,55.6,29.29,WSW,258,3.5,3.5,65,0.00,CLR,,0.02,WeatherDisplay:10.37,2013-05-08 20:48:00,
2013-05-08 16:53:00,67.8,56.4,29.29,WSW,258,0.0,0.0,67,0.00,CLR,,0.02,WeatherDisplay:10.37,2013-05-08 20:53:00,
2013-05-08 16:58:00,67.8,56.0,29.29,WSW,258,0.0,0.0,66,0.00,CLR,,0.02,WeatherDisplay:10.37,2013-05-08 20:58:00,
2013-05-08 17:03:00,67.9,56.5,29.29,WSW,258,0.0,0.0,67,0.00,CLR,,0.02,WeatherDisplay:10.37,2013-05-08 21:03:00,
2013-05-08 17:08:00,67.8,56.9,29.29,WSW,258,0.0,0.0,68,0.00,CLR,,0.02,WeatherDisplay:10.37,2013-05-08 21:08:00,
2013-05-08 17:13:00,67.8,56.9,29.29,WSW,258,0.0,0.0,68,0.00,CLR,,0.02,WeatherDisplay:10.37,2013-05-08 21:13:00,
2013-05-08 17:18:00,67.8,57.7,29.29,WSW,258,0.0,0.0,70,0.00,CLR,,0.02,WeatherDisplay:10.37,2013-05-08 21:18:00,
2013-05-08 17:23:00,67.6,57.1,29.29,WSW,258,0.0,0.0,69,0.00,CLR,,0.02,WeatherDisplay:10.37,2013-05-08 21:23:00,
2013-05-08 17:28:00,67.6,57.1,29.28,WSW,258,0.0,0.0,69,0.00,CLR,,0.02,WeatherDisplay:10.37,2013-05-08 21:28:00,
2013-05-08 17:33:00,67.3,56.0,29.28,WSW,258,1.1,1.1,67,0.00,CLR,,0.02,WeatherDisplay:10.37,2013-05-08 21:33:00,
2013-05-08 17:38:00,67.1,56.6,29.28,WSW,258,0.0,0.0,69,0.00,CLR,,0.02,WeatherDisplay:10.37,2013-05-08 21:38:00,
2013-05-08 17:43:00,67.1,56.2,29.28,WSW,258,1.1,1.1,68,0.00,CLR,,0.02,WeatherDisplay:10.37,2013-05-08 21:43:00,
2013-05-08 17:48:00,67.3,57.2,29.28,WSW,258,0.0,0.0,70,0.00,CLR,,0.02,WeatherDisplay:10.37,2013-05-08 21:48:00,
2013-05-08 17:53:00,67.4,56.5,29.28,WSW,254,3.5,3.5,68,0.00,CLR,,0.02,WeatherDisplay:10.37,2013-05-08 21:53:00,
2013-05-08 17:58:00,67.6,56.2,29.28,WSW,254,0.0,0.0,67,0.00,CLR,,0.02,WeatherDisplay:10.37,2013-05-08 21:58:00,
2013-05-08 18:03:00,67.8,57.3,29.28,WSW,254,0.0,0.0,69,0.00,CLR,,0.02,WeatherDisplay:10.37,2013-05-08 22:03:00,
2013-05-08 18:08:00,68.3,56.5,29.28,WSW,254,2.3,2.3,66,0.00,CLR,,0.02,WeatherDisplay:10.37,2013-05-08 22:08:00,
2013-05-08 18:13:00,68.4,56.2,29.28,WSW,254,3.5,3.5,65,0.00,CLR,,0.02,WeatherDisplay:10.37,2013-05-08 22:13:00,
2013-05-08 18:18:00,68.4,55.7,29.28,WSW,250,3.5,0.0,64,0.00,CLR,,0.02,WeatherDisplay:10.37,2013-05-08 22:18:00,
2013-05-08 18:23:00,68.6,57.2,29.28,WSW,250,0.0,0.0,67,0.00,CLR,,0.02,WeatherDisplay:10.37,2013-05-08 22:23:00,
2013-05-08 18:28:00,68.4,57.0,29.28,WSW,250,0.0,0.0,67,0.00,CLR,,0.02,WeatherDisplay:10.37,2013-05-08 22:28:00,
2013-05-08 18:33:00,68.3,57.3,29.28,WSW,250,0.0,0.0,68,0.00,CLR,,0.02,WeatherDisplay:10.37,2013-05-08 22:33:00,
2013-05-08 18:38:00,68.1,57.5,29.28,WSW,250,0.0,0.0,69,0.00,CLR,,0.02,WeatherDisplay:10.37,2013-05-08 22:38:00,
2013-05-08 18:43:00,67.8,57.3,29.28,WSW,250,0.0,0.0,69,0.00,CLR,,0.02,WeatherDisplay:10.37,2013-05-08 22:43:00,
2013-05-08 18:48:00,67.6,57.5,29.28,WSW,250,0.0,0.0,70,0.00,CLR,,0.02,WeatherDisplay:10.37,2013-05-08 22:48:00,
2013-05-08 18:53:00,67.6,58.2,29.28,WSW,250,0.0,0.0,72,0.00,CLR,,0.02,WeatherDisplay:10.37,2013-05-08 22:53:00,
2013-05-08 18:58:00,67.1,57.8,29.28,WSW,250,0.0,0.0,72,0.00,CLR,,0.02,WeatherDisplay:10.37,2013-05-08 22:58:00,
2013-05-08 19:03:00,66.9,57.6,29.28,WSW,250,0.0,0.0,72,0.00,CLR,,0.02,WeatherDisplay:10.37,2013-05-08 23:03:00,
2013-05-08 19:08:00,66.9,58.0,29.28,WSW,250,0.0,0.0,73,0.00,CLR,,0.02,WeatherDisplay:10.37,2013-05-08 23:08:00,
2013-05-08 19:13:00,66.8,57.9,29.28,WSW,250,0.0,0.0,73,0.00,CLR,,0.02,WeatherDisplay:10.37,2013-05-08 23:13:00,
2013-05-08 19:18:00,66.8,58.6,29.28,WSW,250,0.0,0.0,75,0.00,CLR,,0.02,WeatherDisplay:10.37,2013-05-08 23:18:00,
2013-05-08 19:23:00,66.8,58.6,29.28,WSW,250,0.0,0.0,75,0.00,CLR,,0.02,WeatherDisplay:10.37,2013-05-08 23:23:00,
2013-05-08 19:28:00,66.6,58.4,29.29,WSW,250,0.0,0.0,75,0.00,CLR,,0.02,WeatherDisplay:10.37,2013-05-08 23:28:00,
2013-05-08 19:33:00,66.4,58.2,29.29,WSW,250,0.0,0.0,75,0.00,CLR,,0.02,WeatherDisplay:10.37,2013-05-08 23:33:00,
2013-05-08 19:38:00,66.1,58.3,29.29,WSW,250,0.0,0.0,76,0.00,CLR,,0.02,WeatherDisplay:10.37,2013-05-08 23:38:00,
2013-05-08 19:43:00,66.0,58.2,29.29,WSW,250,0.0,0.0,76,0.00,CLR,,0.02,WeatherDisplay:10.37,2013-05-08 23:43:00,
2013-05-08 19:48:00,65.8,58.4,29.29,WSW,250,0.0,0.0,77,0.00,CLR,,0.02,WeatherDisplay:10.37,2013-05-08 23:48:00,
2013-05-08 19:53:00,65.6,58.6,29.29,WSW,250,0.0,0.0,78,0.00,CLR,,0.02,WeatherDisplay:10.37,2013-05-08 23:53:00,
2013-05-08 19:58:00,65.5,58.8,29.29,WSW,250,0.0,0.0,79,0.00,CLR,,0.02,WeatherDisplay:10.37,2013-05-08 23:58:00,
2013-05-08 20:03:00,65.3,58.6,29.29,WSW,250,0.0,0.0,79,0.00,CLR,,0.02,WeatherDisplay:10.37,2013-05-09 00:03:00,
2013-05-08 20:08:00,65.2,58.9,29.29,WSW,250,0.0,0.0,80,0.00,CLR,,0.02,WeatherDisplay:10.37,2013-05-09 00:08:00,
2013-05-08 20:13:00,64.8,58.5,29.30,WSW,250,0.0,0.0,80,0.00,CLR,,0.02,WeatherDisplay:10.37,2013-05-09 00:13:00,
2013-05-08 20:18:00,64.7,58.4,29.30,WSW,250,0.0,0.0,80,0.00,CLR,,0.02,WeatherDisplay:10.37,2013-05-09 00:18:00,
2013-05-08 20:23:00,64.5,58.5,29.30,WSW,250,0.0,0.0,81,0.00,CLR,,0.02,WeatherDisplay:10.37,2013-05-09 00:23:00,
2013-05-08 20:28:00,64.3,58.7,29.31,WSW,250,0.0,0.0,82,0.00,CLR,,0.02,WeatherDisplay:10.37,2013-05-09 00:28:00,
2013-05-08 20:33:00,64.2,58.6,29.31,WSW,250,1.1,0.0,82,0.00,CLR,,0.02,WeatherDisplay:10.37,2013-05-09 00:33:00,
2013-05-08 20:38:00,64.2,58.9,29.31,WSW,251,0.0,0.3,83,0.00,CLR,,0.02,WeatherDisplay:10.37,2013-05-09 00:38:00,
2013-05-08 20:43:00,64.0,58.7,29.32,North,350,3.0,3.0,83,0.00,CLR,,0.02,WeatherDisplay:10.37,2013-05-09 00:43:00,
2013-05-08 20:48:00,64.0,59.1,29.32,North,359,0.0,0.4,84,0.00,CLR,,0.02,WeatherDisplay:10.37,2013-05-09 00:48:00,
2013-05-08 20:53:00,63.9,59.3,29.32,NW,308,1.1,0.0,85,0.00,CLR,,0.02,WeatherDisplay:10.37,2013-05-09 00:53:00,
2013-05-08 20:58:00,63.7,59.1,29.32,NNW,340,0.0,0.0,85,0.00,CLR,,0.02,WeatherDisplay:10.37,2013-05-09 00:58:00,
2013-05-08 21:03:00,63.4,59.1,29.32,North,350,3.5,3.5,86,0.00,CLR,,0.02,WeatherDisplay:10.37,2013-05-09 01:03:00,
2013-05-08 21:08:00,63.1,59.2,29.32,North,350,0.0,0.0,87,0.00,CLR,,0.02,WeatherDisplay:10.37,2013-05-09 01:08:00,
2013-05-08 21:13:00,62.9,59.3,29.32,North,350,0.0,0.0,88,0.00,CLR,,0.02,WeatherDisplay:10.37,2013-05-09 01:13:00,
2013-05-08 21:18:00,62.7,59.1,29.32,North,350,0.0,0.0,88,0.00,CLR,,0.02,WeatherDisplay:10.37,2013-05-09 01:18:00,
2013-05-08 21:23:00,62.6,59.3,29.32,North,350,0.0,0.0,89,0.00,CLR,,0.02,WeatherDisplay:10.37,2013-05-09 01:23:00,
2013-05-08 21:28:00,62.4,59.1,29.33,North,350,0.0,0.0,89,0.00,CLR,,0.02,WeatherDisplay:10.37,2013-05-09 01:28:00,
2013-05-08 21:33:00,62.3,59.3,29.33,North,350,0.0,0.0,90,0.00,CLR,,0.02,WeatherDisplay:10.37,2013-05-09 01:33:00,
2013-05-08 21:38:00,62.1,59.1,29.33,North,350,0.0,0.0,90,0.00,CLR,,0.02,WeatherDisplay:10.37,2013-05-09 01:38:00,
2013-05-08 21:43:00,62.0,59.3,29.33,North,350,0.0,0.0,91,0.00,CLR,,0.02,WeatherDisplay:10.37,2013-05-09 01:43:00,
2013-05-08 21:48:00,62.0,59.3,29.33,North,350,0.0,0.0,91,0.00,CLR,,0.02,WeatherDisplay:10.37,2013-05-09 01:48:00,
2013-05-08 21:53:00,61.8,59.1,29.33,North,350,0.0,0.0,91,0.00,CLR,,0.02,WeatherDisplay:10.37,2013-05-09 01:53:00,
2013-05-08 21:59:00,61.5,59.2,29.34,North,350,0.0,0.0,92,0.00,CLR,,0.02,WeatherDisplay:10.37,2013-05-09 01:59:00,
2013-05-08 22:04:00,61.3,59.0,29.34,North,350,0.0,0.0,92,0.00,CLR,,0.02,WeatherDisplay:10.37,2013-05-09 02:04:00,
2013-05-08 22:09:00,61.2,58.9,29.34,North,350,0.0,0.0,92,0.00,CLR,,0.02,WeatherDisplay:10.37,2013-05-09 02:09:00,
2013-05-08 22:14:00,60.9,58.6,29.34,North,350,0.0,0.0,92,0.00,CLR,,0.02,WeatherDisplay:10.37,2013-05-09 02:14:00,
2013-05-08 22:19:00,60.7,58.4,29.34,North,350,0.0,0.0,92,0.00,CLR,,0.02,WeatherDisplay:10.37,2013-05-09 02:19:00,
2013-05-08 22:24:00,60.5,58.2,29.34,North,350,0.0,0.0,92,0.00,CLR,,0.02,WeatherDisplay:10.37,2013-05-09 02:24:00,
2013-05-08 22:29:00,60.5,58.5,29.35,North,350,0.0,0.0,93,0.00,CLR,,0.02,WeatherDisplay:10.37,2013-05-09 02:29:00,
2013-05-08 22:34:00,60.4,58.4,29.35,North,350,0.0,0.0,93,0.00,CLR,,0.02,WeatherDisplay:10.37,2013-05-09 02:34:00,
2013-05-08 22:39:00,60.2,58.2,29.35,North,350,0.0,0.0,93,0.00,CLR,,0.02,WeatherDisplay:10.37,2013-05-09 02:39:00,
2013-05-08 22:44:00,60.1,58.1,29.35,North,350,1.1,0.0,93,0.00,CLR,,0.02,WeatherDisplay:10.37,2013-05-09 02:44:00,
2013-05-08 22:49:00,60.1,58.1,29.35,North,350,1.1,0.0,93,0.00,CLR,,0.02,WeatherDisplay:10.37,2013-05-09 02:49:00,
2013-05-08 22:54:00,59.9,58.2,29.35,North,350,0.0,0.0,94,0.00,CLR,,0.02,WeatherDisplay:10.37,2013-05-09 02:54:00,
2013-05-08 22:59:00,59.9,58.2,29.35,North,353,0.0,0.0,94,0.00,CLR,,0.02,WeatherDisplay:10.37,2013-05-09 02:59:00,
2013-05-08 23:04:00,59.8,58.1,29.35,North,353,0.0,0.0,94,0.00,CLR,,0.02,WeatherDisplay:10.37,2013-05-09 03:04:00,
2013-05-08 23:09:00,59.6,57.9,29.35,North,352,0.0,0.0,94,0.00,CLR,,0.02,WeatherDisplay:10.37,2013-05-09 03:09:00,
2013-05-08 23:14:00,59.6,57.9,29.35,North,352,0.0,0.0,94,0.00,CLR,,0.02,WeatherDisplay:10.37,2013-05-09 03:14:00,
2013-05-08 23:19:00,59.5,57.8,29.35,North,352,0.0,0.0,94,0.00,CLR,,0.02,WeatherDisplay:10.37,2013-05-09 03:19:00,
2013-05-08 23:24:00,59.5,57.8,29.35,North,352,0.0,0.0,94,0.00,CLR,,0.02,WeatherDisplay:10.37,2013-05-09 03:24:00,
2013-05-08 23:29:00,59.3,57.6,29.34,North,353,0.0,0.0,94,0.00,CLR,,0.02,WeatherDisplay:10.37,2013-05-09 03:29:00,
2013-05-08 23:34:00,59.0,57.3,29.34,North,352,0.0,0.0,94,0.00,CLR,,0.02,WeatherDisplay:10.37,2013-05-09 03:34:00,
2013-05-08 23:39:00,58.9,57.5,29.34,North,353,0.0,0.0,95,0.00,CLR,,0.02,WeatherDisplay:10.37,2013-05-09 03:39:00,
2013-05-08 23:44:00,58.7,57.3,29.34,North,352,0.0,0.0,95,0.00,CLR,,0.02,WeatherDisplay:10.37,2013-05-09 03:44:00,
2013-05-08 23:49:00,58.6,57.2,29.34,North,352,0.0,0.0,95,0.00,CLR,,0.02,WeatherDisplay:10.37,2013-05-09 03:49:00,
2013-05-08 23:54:00,58.4,57.0,29.34,North,352,0.0,0.0,95,0.00,CLR,,0.02,WeatherDisplay:10.37,2013-05-09 03:54:00,
2013-05-08 23:59:00,58.4,57.0,29.34,North,352,0.0,0.0,95,0.00,CLR,,0.02,WeatherDisplay:10.37,2013-05-09 03:59:00,